createdAt,value
2023-05-02T00:00:01.784Z,0.00
2023-05-02T00:01:01.365Z,0.00
2023-05-02T00:02:01.411Z,0.00
2023-05-02T00:03:01.510Z,0.00
2023-05-02T00:04:01.535Z,0.00
2023-05-02T00:05:01.326Z,0.00
2023-05-02T00:06:01.371Z,0.00
2023-05-02T00:07:01.320Z,0.00
2023-05-02T00:08:01.475Z,0.00
2023-05-02T00:09:01.268Z,0.00
2023-05-02T00:10:01.575Z,0.00
2023-05-02T00:11:01.276Z,0.00
2023-05-02T00:12:01.273Z,0.00
2023-05-02T00:13:01.349Z,0.00
2023-05-02T00:14:01.219Z,0.00
2023-05-02T00:15:01.224Z,0.00
2023-05-02T00:16:01.224Z,0.00
2023-05-02T00:17:01.249Z,0.00
2023-05-02T00:18:01.242Z,0.00
2023-05-02T00:19:01.301Z,0.00
2023-05-02T00:20:01.559Z,0.00
2023-05-02T00:21:01.155Z,0.00
2023-05-02T00:22:01.134Z,0.00
2023-05-02T00:23:01.130Z,0.00
2023-05-02T00:24:01.155Z,0.00
2023-05-02T00:25:01.300Z,0.00
2023-05-02T00:26:01.118Z,0.00
2023-05-02T00:27:01.098Z,0.00
2023-05-02T00:28:01.104Z,0.00
2023-05-02T00:29:01.039Z,0.00
2023-05-02T00:30:01.419Z,0.00
2023-05-02T00:31:01.318Z,0.00
2023-05-02T00:32:01.038Z,0.00
2023-05-02T00:33:01.055Z,0.00
2023-05-02T00:34:00.994Z,0.00
2023-05-02T00:35:01.010Z,0.00
2023-05-02T00:36:00.980Z,0.00
2023-05-02T00:37:01.034Z,0.00
2023-05-02T00:38:00.974Z,0.00
2023-05-02T00:39:00.927Z,0.00
2023-05-02T00:40:01.424Z,0.00
2023-05-02T00:41:00.928Z,0.00
2023-05-02T00:42:00.969Z,0.00
2023-05-02T00:43:00.903Z,0.00
2023-05-02T00:44:00.914Z,0.00
2023-05-02T00:45:00.887Z,0.00
2023-05-02T00:46:00.902Z,0.00
2023-05-02T00:47:00.866Z,0.00
2023-05-02T00:48:00.876Z,0.00
2023-05-02T00:49:00.811Z,0.00
2023-05-02T00:50:01.056Z,0.00
2023-05-02T00:51:00.810Z,0.00
2023-05-02T00:52:00.889Z,0.00
2023-05-02T00:53:00.780Z,0.00
2023-05-02T00:54:00.797Z,0.00
2023-05-02T00:55:00.775Z,0.00
2023-05-02T00:56:00.749Z,0.00
2023-05-02T00:57:00.759Z,0.00
2023-05-02T00:58:00.792Z,0.00
2023-05-02T00:59:00.741Z,0.00
2023-05-02T01:00:00.965Z,0.00
2023-05-02T01:01:00.693Z,0.00
2023-05-02T01:02:00.745Z,0.00
2023-05-02T01:03:00.790Z,0.00
2023-05-02T01:04:00.785Z,0.00
2023-05-02T01:05:00.674Z,0.00
2023-05-02T01:06:00.669Z,0.00
2023-05-02T01:07:00.625Z,0.00
2023-05-02T01:08:00.653Z,0.00
2023-05-02T01:09:00.588Z,0.00
2023-05-02T01:10:00.835Z,0.00
2023-05-02T01:11:00.601Z,0.00
2023-05-02T01:12:00.569Z,0.00
2023-05-02T01:13:00.565Z,0.00
2023-05-02T01:14:00.553Z,0.00
2023-05-02T01:15:00.564Z,0.00
2023-05-02T01:16:00.597Z,0.00
2023-05-02T01:17:00.546Z,0.00
2023-05-02T01:18:00.523Z,0.00
2023-05-02T01:19:00.513Z,0.00
2023-05-02T01:20:00.762Z,0.00
2023-05-02T01:21:00.482Z,0.00
2023-05-02T01:22:00.462Z,0.00
2023-05-02T01:23:00.432Z,0.00
2023-05-02T01:24:00.415Z,0.00
2023-05-02T01:25:00.549Z,0.00
2023-05-02T01:26:00.410Z,0.00
2023-05-02T01:27:00.391Z,0.00
2023-05-02T01:28:00.396Z,0.00
2023-05-02T01:29:00.397Z,0.00
2023-05-02T01:30:00.582Z,0.00
2023-05-02T01:31:00.467Z,0.00
2023-05-02T01:32:00.371Z,0.00
2023-05-02T01:33:00.410Z,0.00
2023-05-02T01:34:00.298Z,0.00
2023-05-02T01:35:00.300Z,0.00
2023-05-02T01:36:00.401Z,0.00
2023-05-02T01:37:00.297Z,0.00
2023-05-02T01:38:00.266Z,0.00
2023-05-02T01:39:00.261Z,0.00
2023-05-02T01:40:00.682Z,0.00
2023-05-02T01:41:00.299Z,0.00
2023-05-02T01:42:00.242Z,0.00
2023-05-02T01:43:00.219Z,0.00
2023-05-02T01:44:00.221Z,0.00
2023-05-02T01:45:00.226Z,0.00
2023-05-02T01:46:00.227Z,0.00
2023-05-02T01:47:00.233Z,0.00
2023-05-02T01:48:00.219Z,0.00
2023-05-02T01:49:00.173Z,0.00
2023-05-02T01:50:00.575Z,0.00
2023-05-02T01:51:00.130Z,0.00
2023-05-02T01:52:00.137Z,0.00
2023-05-02T01:53:00.151Z,0.00
2023-05-02T01:54:00.132Z,0.00
2023-05-02T01:55:00.123Z,0.00
2023-05-02T01:56:00.075Z,0.00
2023-05-02T01:57:00.102Z,0.00
2023-05-02T01:58:00.025Z,0.00
2023-05-02T01:59:00.036Z,0.00
2023-05-02T02:00:00.542Z,0.00
2023-05-02T02:01:00.054Z,0.00
2023-05-02T02:02:00.036Z,0.00
2023-05-02T02:03:00.081Z,0.00
2023-05-02T02:04:00.104Z,0.00
2023-05-02T02:04:59.992Z,0.00
2023-05-02T02:06:00.078Z,0.00
2023-05-02T02:06:59.941Z,0.00
2023-05-02T02:07:59.914Z,0.00
2023-05-02T02:08:59.913Z,0.00
2023-05-02T02:10:00.165Z,0.00
2023-05-02T02:10:59.905Z,0.00
2023-05-02T02:11:59.927Z,0.00
2023-05-02T02:12:59.899Z,0.00
2023-05-02T02:13:59.842Z,0.00
2023-05-02T02:14:59.844Z,0.00
2023-05-02T02:15:59.926Z,0.00
2023-05-02T02:17:00.011Z,0.00
2023-05-02T02:17:59.851Z,0.00
2023-05-02T02:18:59.830Z,0.00
2023-05-02T02:20:00.046Z,0.00
2023-05-02T02:20:59.807Z,0.00
2023-05-02T02:21:59.785Z,0.00
2023-05-02T02:22:59.754Z,0.00
2023-05-02T02:23:59.729Z,0.00
2023-05-02T02:24:59.767Z,0.00
2023-05-02T02:25:59.739Z,0.00
2023-05-02T02:26:59.715Z,0.00
2023-05-02T02:27:59.806Z,0.00
2023-05-02T02:28:59.678Z,0.00
2023-05-02T02:29:59.937Z,0.00
2023-05-02T02:30:59.839Z,0.00
2023-05-02T02:31:59.640Z,0.00
2023-05-02T02:32:59.761Z,0.00
2023-05-02T02:33:59.643Z,0.00
2023-05-02T02:34:59.643Z,0.00
2023-05-02T02:35:59.731Z,0.00
2023-05-02T02:36:59.593Z,0.00
2023-05-02T02:37:59.575Z,0.00
2023-05-02T02:38:59.596Z,0.00
2023-05-02T02:39:59.926Z,0.00
2023-05-02T02:40:59.544Z,0.00
2023-05-02T02:41:59.542Z,0.00
2023-05-02T02:42:59.551Z,0.00
2023-05-02T02:43:59.526Z,0.00
2023-05-02T02:44:59.496Z,0.00
2023-05-02T02:45:59.616Z,0.00
2023-05-02T02:46:59.515Z,0.00
2023-05-02T02:47:59.521Z,0.00
2023-05-02T02:48:59.482Z,0.00
2023-05-02T02:49:59.725Z,0.00
2023-05-02T02:50:59.477Z,0.00
2023-05-02T02:51:59.461Z,0.00
2023-05-02T02:52:59.434Z,0.00
2023-05-02T02:53:59.432Z,0.00
2023-05-02T02:54:59.470Z,0.00
2023-05-02T02:55:59.393Z,0.00
2023-05-02T02:56:59.414Z,0.00
2023-05-02T02:57:59.392Z,0.00
2023-05-02T02:58:59.380Z,0.00
2023-05-02T02:59:59.569Z,0.00
2023-05-02T03:00:59.343Z,0.00
2023-05-02T03:01:59.326Z,0.00
2023-05-02T03:02:59.384Z,0.00
2023-05-02T03:03:59.382Z,0.00
2023-05-02T03:04:59.269Z,0.00
2023-05-02T03:05:59.294Z,0.00
2023-05-02T03:06:59.301Z,0.00
2023-05-02T03:07:59.321Z,0.00
2023-05-02T03:08:59.303Z,0.00
2023-05-02T03:10:06.249Z,0.00
2023-05-02T03:10:59.317Z,0.00
2023-05-02T03:11:59.182Z,0.00
2023-05-02T03:12:59.222Z,0.00
2023-05-02T03:13:59.181Z,0.00
2023-05-02T03:14:59.177Z,0.00
2023-05-02T03:15:59.181Z,0.00
2023-05-02T03:16:59.137Z,0.00
2023-05-02T03:17:59.203Z,0.00
2023-05-02T03:18:59.162Z,0.00
2023-05-02T03:19:59.325Z,0.00
2023-05-02T03:20:59.104Z,0.00
2023-05-02T03:21:59.194Z,0.00
2023-05-02T03:22:59.508Z,0.00
2023-05-02T03:23:59.038Z,0.00
2023-05-02T03:24:59.068Z,0.00
2023-05-02T03:25:59.017Z,0.00
2023-05-02T03:26:59.060Z,0.00
2023-05-02T03:27:59.016Z,0.00
2023-05-02T03:28:58.996Z,0.00
2023-05-02T03:29:59.113Z,0.00
2023-05-02T03:30:58.970Z,0.00
2023-05-02T03:31:59.038Z,0.00
2023-05-02T03:32:59.191Z,0.00
2023-05-02T03:33:58.920Z,0.00
2023-05-02T03:34:58.952Z,0.00
2023-05-02T03:35:58.905Z,0.00
2023-05-02T03:36:58.956Z,0.00
2023-05-02T03:37:58.905Z,0.00
2023-05-02T03:38:58.977Z,0.00
2023-05-02T03:39:59.016Z,0.00
2023-05-02T03:40:58.857Z,0.00
2023-05-02T03:41:58.862Z,4.00
2023-05-02T03:42:58.951Z,4.00
2023-05-02T03:43:58.811Z,4.00
2023-05-02T03:44:58.815Z,0.00
2023-05-02T03:45:58.818Z,0.00
2023-05-02T03:46:58.834Z,0.00
2023-05-02T03:47:58.836Z,4.00
2023-05-02T03:48:58.864Z,0.00
2023-05-02T03:49:58.942Z,4.00
2023-05-02T03:50:58.751Z,4.00
2023-05-02T03:51:58.754Z,4.00
2023-05-02T03:52:58.748Z,4.00
2023-05-02T03:53:58.721Z,8.00
2023-05-02T03:54:58.736Z,8.00
2023-05-02T03:55:58.741Z,8.00
2023-05-02T03:56:58.698Z,8.00
2023-05-02T03:57:58.677Z,8.00
2023-05-02T03:58:58.725Z,8.00
2023-05-02T03:59:58.993Z,4.00
2023-05-02T04:00:58.662Z,8.00
2023-05-02T04:01:58.660Z,12.00
2023-05-02T04:02:58.658Z,8.00
2023-05-02T04:03:58.625Z,8.00
2023-05-02T04:04:58.621Z,12.00
2023-05-02T04:05:58.626Z,12.00
2023-05-02T04:06:58.582Z,12.00
2023-05-02T04:07:58.535Z,12.00
2023-05-02T04:08:58.555Z,12.00
2023-05-02T04:09:58.988Z,12.00
2023-05-02T04:10:58.538Z,16.00
2023-05-02T04:11:58.530Z,16.00
2023-05-02T04:12:58.518Z,16.00
2023-05-02T04:13:58.471Z,16.00
2023-05-02T04:14:58.518Z,20.00
2023-05-02T04:15:58.466Z,20.00
2023-05-02T04:16:58.511Z,20.00
2023-05-02T04:17:58.421Z,16.00
2023-05-02T04:18:58.441Z,20.00
2023-05-02T04:19:59.034Z,24.00
2023-05-02T04:20:58.396Z,24.00
2023-05-02T04:21:58.398Z,28.00
2023-05-02T04:22:58.401Z,28.00
2023-05-02T04:23:58.392Z,28.00
2023-05-02T04:24:58.355Z,28.00
2023-05-02T04:25:58.325Z,28.00
2023-05-02T04:26:58.322Z,32.00
2023-05-02T04:27:58.339Z,28.00
2023-05-02T04:28:58.498Z,32.00
2023-05-02T04:29:58.733Z,28.00
2023-05-02T04:30:58.310Z,28.00
2023-05-02T04:31:58.253Z,28.00
2023-05-02T04:32:58.297Z,28.00
2023-05-02T04:33:58.231Z,32.00
2023-05-02T04:34:58.281Z,32.00
2023-05-02T04:35:58.222Z,40.00
2023-05-02T04:36:58.207Z,44.00
2023-05-02T04:37:58.206Z,44.00
2023-05-02T04:38:58.182Z,60.00
2023-05-02T04:39:58.444Z,60.00
2023-05-02T04:40:58.161Z,60.00
2023-05-02T04:41:58.146Z,68.00
2023-05-02T04:42:58.162Z,64.00
2023-05-02T04:43:58.135Z,64.00
2023-05-02T04:44:58.115Z,68.00
2023-05-02T04:45:58.170Z,68.00
2023-05-02T04:46:58.085Z,84.00
2023-05-02T04:47:58.130Z,80.00
2023-05-02T04:48:58.095Z,84.00
2023-05-02T04:49:58.423Z,96.00
2023-05-02T04:50:58.069Z,92.00
2023-05-02T04:51:58.036Z,76.00
2023-05-02T04:52:58.054Z,80.00
2023-05-02T04:53:58.020Z,84.00
2023-05-02T04:54:58.015Z,80.00
2023-05-02T04:55:58.051Z,116.00
2023-05-02T04:56:58.002Z,140.00
2023-05-02T04:57:57.948Z,120.00
2023-05-02T04:58:57.949Z,120.00
2023-05-02T04:59:58.165Z,116.00
2023-05-02T05:00:58.041Z,104.00
2023-05-02T05:01:57.973Z,92.00
2023-05-02T05:02:59.445Z,88.00
2023-05-02T05:03:58.039Z,80.00
2023-05-02T05:04:57.959Z,96.00
2023-05-02T05:05:57.854Z,108.00
2023-05-02T05:06:58.006Z,96.00
2023-05-02T05:07:57.832Z,100.00
2023-05-02T05:08:57.836Z,120.00
2023-05-02T05:09:57.985Z,128.00
2023-05-02T05:10:57.843Z,128.00
2023-05-02T05:11:57.829Z,144.00
2023-05-02T05:12:57.800Z,148.00
2023-05-02T05:14:00.164Z,132.00
2023-05-02T05:15:03.478Z,112.00
2023-05-02T05:15:58.067Z,136.00
2023-05-02T05:16:58.190Z,112.00
2023-05-02T05:17:57.813Z,92.00
2023-05-02T05:18:57.738Z,108.00
2023-05-02T05:19:57.952Z,104.00
2023-05-02T05:20:57.683Z,100.00
2023-05-02T05:21:57.687Z,104.00
2023-05-02T05:22:57.697Z,92.00
2023-05-02T05:23:57.692Z,96.00
2023-05-02T05:24:57.694Z,112.00
2023-05-02T05:25:57.637Z,112.00
2023-05-02T05:26:57.716Z,96.00
2023-05-02T05:27:57.681Z,112.00
2023-05-02T05:28:57.601Z,132.00
2023-05-02T05:29:57.728Z,124.00
2023-05-02T05:30:57.691Z,116.00
2023-05-02T05:31:57.672Z,100.00
2023-05-02T05:32:57.608Z,100.00
2023-05-02T05:33:57.644Z,80.00
2023-05-02T05:34:57.585Z,88.00
2023-05-02T05:35:57.524Z,116.00
2023-05-02T05:36:57.525Z,196.00
2023-05-02T05:37:57.567Z,192.00
2023-05-02T05:38:57.500Z,224.00
2023-05-02T05:39:57.724Z,240.00
2023-05-02T05:40:57.475Z,256.00
2023-05-02T05:41:57.476Z,300.00
2023-05-02T05:42:57.462Z,312.00
2023-05-02T05:43:59.136Z,272.00
2023-05-02T05:44:57.431Z,264.00
2023-05-02T05:45:57.453Z,316.00
2023-05-02T05:46:57.416Z,308.00
2023-05-02T05:47:57.418Z,380.00
2023-05-02T05:48:57.540Z,316.00
2023-05-02T05:49:57.472Z,364.00
2023-05-02T05:50:57.334Z,444.00
2023-05-02T05:51:57.338Z,532.00
2023-05-02T05:52:57.366Z,580.00
2023-05-02T05:53:57.350Z,648.00
2023-05-02T05:54:57.285Z,656.00
2023-05-02T05:55:57.291Z,588.00
2023-05-02T05:56:57.318Z,432.00
2023-05-02T05:57:57.303Z,396.00
2023-05-02T05:58:57.278Z,308.00
2023-05-02T05:59:57.546Z,332.00
2023-05-02T06:00:57.243Z,380.00
2023-05-02T06:01:57.253Z,308.00
2023-05-02T06:02:57.556Z,284.00
2023-05-02T06:03:57.265Z,420.00
2023-05-02T06:04:57.310Z,416.00
2023-05-02T06:05:57.202Z,412.00
2023-05-02T06:06:57.284Z,252.00
2023-05-02T06:07:57.175Z,172.00
2023-05-02T06:08:57.131Z,160.00
2023-05-02T06:09:57.257Z,156.00
2023-05-02T06:10:57.136Z,164.00
2023-05-02T06:11:57.110Z,184.00
2023-05-02T06:12:57.089Z,272.00
2023-05-02T06:13:57.088Z,308.00
2023-05-02T06:14:57.124Z,344.00
2023-05-02T06:15:57.112Z,408.00
2023-05-02T06:16:57.039Z,508.00
2023-05-02T06:17:57.109Z,440.00
2023-05-02T06:18:57.047Z,284.00
2023-05-02T06:19:57.326Z,248.00
2023-05-02T06:20:56.992Z,304.00
2023-05-02T06:21:56.999Z,364.00
2023-05-02T06:22:56.964Z,408.00
2023-05-02T06:23:56.993Z,384.00
2023-05-02T06:24:56.976Z,436.00
2023-05-02T06:25:57.100Z,488.00
2023-05-02T06:26:56.961Z,524.00
2023-05-02T06:27:56.924Z,556.00
2023-05-02T06:28:56.925Z,676.00
2023-05-02T06:29:56.918Z,820.00
2023-05-02T06:30:56.905Z,892.00
2023-05-02T06:31:57.021Z,896.00
2023-05-02T06:32:56.902Z,896.00
2023-05-02T06:33:56.899Z,800.00
2023-05-02T06:34:56.832Z,800.00
2023-05-02T06:35:57.477Z,756.00
2023-05-02T06:36:56.871Z,648.00
2023-05-02T06:37:56.836Z,640.00
2023-05-02T06:38:56.783Z,712.00
2023-05-02T06:39:56.785Z,792.00
2023-05-02T06:40:56.768Z,764.00
2023-05-02T06:41:56.797Z,652.00
2023-05-02T06:42:56.767Z,656.00
2023-05-02T06:43:56.777Z,684.00
2023-05-02T06:44:56.712Z,720.00
2023-05-02T06:45:56.714Z,748.00
2023-05-02T06:46:56.941Z,752.00
2023-05-02T06:47:56.817Z,820.00
2023-05-02T06:48:56.671Z,920.00
2023-05-02T06:49:56.692Z,888.00
2023-05-02T06:50:56.642Z,1124.00
2023-05-02T06:51:56.676Z,1124.00
2023-05-02T06:52:56.717Z,1112.00
2023-05-02T06:53:56.652Z,1276.00
2023-05-02T06:54:56.638Z,1360.00
2023-05-02T06:55:56.598Z,1248.00
2023-05-02T06:56:56.579Z,1208.00
2023-05-02T06:57:56.611Z,1204.00
2023-05-02T06:58:56.633Z,1392.00
2023-05-02T06:59:56.578Z,1300.00
2023-05-02T07:00:56.739Z,1204.00
2023-05-02T07:01:56.531Z,1240.00
2023-05-02T07:02:56.635Z,1276.00
2023-05-02T07:03:56.620Z,1412.00
2023-05-02T07:04:56.525Z,1424.00
2023-05-02T07:05:56.551Z,1312.00
2023-05-02T07:06:56.572Z,1340.00
2023-05-02T07:07:56.509Z,1460.00
2023-05-02T07:08:56.475Z,1512.00
2023-05-02T07:09:56.438Z,1596.00
2023-05-02T07:10:56.472Z,1616.00
2023-05-02T07:11:56.493Z,1504.00
2023-05-02T07:12:56.425Z,1208.00
2023-05-02T07:13:56.421Z,1436.00
2023-05-02T07:14:56.381Z,1508.00
2023-05-02T07:15:56.451Z,1332.00
2023-05-02T07:16:56.397Z,1112.00
2023-05-02T07:17:56.432Z,796.00
2023-05-02T07:18:58.038Z,756.00
2023-05-02T07:19:56.491Z,808.00
2023-05-02T07:20:56.305Z,760.00
2023-05-02T07:21:56.302Z,596.00
2023-05-02T07:22:56.279Z,436.00
2023-05-02T07:23:56.278Z,320.00
2023-05-02T07:24:56.327Z,272.00
2023-05-02T07:25:56.273Z,300.00
2023-05-02T07:26:56.262Z,344.00
2023-05-02T07:27:56.260Z,348.00
2023-05-02T07:28:56.227Z,460.00
2023-05-02T07:29:56.253Z,508.00
2023-05-02T07:30:56.207Z,536.00
2023-05-02T07:31:56.266Z,592.00
2023-05-02T07:32:56.262Z,480.00
2023-05-02T07:33:56.198Z,720.00
2023-05-02T07:34:56.251Z,524.00
2023-05-02T07:35:56.210Z,752.00
2023-05-02T07:36:56.122Z,688.00
2023-05-02T07:37:56.164Z,592.00
2023-05-02T07:38:56.127Z,544.00
2023-05-02T07:39:56.184Z,936.00
2023-05-02T07:40:56.084Z,904.00
2023-05-02T07:41:56.083Z,1028.00
2023-05-02T07:42:56.086Z,1048.00
2023-05-02T07:43:56.085Z,840.00
2023-05-02T07:44:56.065Z,716.00
2023-05-02T07:45:56.291Z,876.00
2023-05-02T07:46:56.048Z,1004.00
2023-05-02T07:47:56.155Z,968.00
2023-05-02T07:48:56.023Z,948.00
2023-05-02T07:49:56.013Z,872.00
2023-05-02T07:50:55.977Z,900.00
2023-05-02T07:51:55.990Z,944.00
2023-05-02T07:52:55.982Z,976.00
2023-05-02T07:53:55.953Z,1016.00
2023-05-02T07:54:55.962Z,1080.00
2023-05-02T07:55:55.942Z,1116.00
2023-05-02T07:56:55.929Z,1108.00
2023-05-02T07:57:56.035Z,1060.00
2023-05-02T07:58:55.909Z,972.00
2023-05-02T07:59:55.916Z,476.00
2023-05-02T08:00:55.886Z,372.00
2023-05-02T08:01:55.888Z,460.00
2023-05-02T08:02:55.911Z,508.00
2023-05-02T08:03:56.068Z,644.00
2023-05-02T08:04:55.850Z,640.00
2023-05-02T08:05:55.864Z,552.00
2023-05-02T08:06:55.852Z,632.00
2023-05-02T08:07:55.808Z,524.00
2023-05-02T08:08:55.832Z,476.00
2023-05-02T08:09:55.793Z,484.00
2023-05-02T08:10:55.755Z,436.00
2023-05-02T08:11:55.769Z,460.00
2023-05-02T08:12:55.902Z,540.00
2023-05-02T08:14:16.721Z,592.00
2023-05-02T08:14:55.732Z,656.00
2023-05-02T08:15:55.722Z,688.00
2023-05-02T08:16:55.826Z,756.00
2023-05-02T08:17:55.732Z,816.00
2023-05-02T08:18:55.697Z,812.00
2023-05-02T08:19:55.664Z,856.00
2023-05-02T08:20:55.648Z,928.00
2023-05-02T08:21:55.626Z,928.00
2023-05-02T08:22:57.062Z,856.00
2023-05-02T08:23:55.618Z,896.00
2023-05-02T08:24:55.622Z,960.00
2023-05-02T08:25:55.573Z,1068.00
2023-05-02T08:26:55.572Z,1172.00
2023-05-02T08:27:55.542Z,1332.00
2023-05-02T08:28:55.644Z,1448.00
2023-05-02T08:29:57.412Z,1480.00
2023-05-02T08:30:55.552Z,1544.00
2023-05-02T08:31:55.521Z,1564.00
2023-05-02T08:32:55.563Z,1632.00
2023-05-02T08:33:55.497Z,1632.00
2023-05-02T08:34:55.517Z,1728.00
2023-05-02T08:35:55.504Z,1820.00
2023-05-02T08:37:10.159Z,1540.00
2023-05-02T08:37:55.428Z,1788.00
2023-05-02T08:38:55.495Z,1720.00
2023-05-02T08:39:55.429Z,1636.00
2023-05-02T08:40:55.440Z,1728.00
2023-05-02T08:41:55.408Z,1496.00
2023-05-02T08:42:55.407Z,1336.00
2023-05-02T08:43:55.356Z,1108.00
2023-05-02T08:44:55.533Z,1148.00
2023-05-02T08:45:55.377Z,1312.00
2023-05-02T08:46:55.415Z,1456.00
2023-05-02T08:47:55.378Z,1584.00
2023-05-02T08:48:55.359Z,1612.00
2023-05-02T08:49:55.328Z,1520.00
2023-05-02T08:50:55.311Z,1288.00
2023-05-02T08:51:55.260Z,1168.00
2023-05-02T08:52:55.376Z,1220.00
2023-05-02T08:53:55.236Z,1288.00
2023-05-02T08:54:55.267Z,1356.00
2023-05-02T08:55:55.209Z,1288.00
2023-05-02T08:56:55.234Z,1384.00
2023-05-02T08:57:55.467Z,1548.00
2023-05-02T08:58:55.257Z,1564.00
2023-05-02T08:59:55.174Z,1552.00
2023-05-02T09:00:55.200Z,1472.00
2023-05-02T09:01:55.183Z,1208.00
2023-05-02T09:02:55.192Z,1024.00
2023-05-02T09:03:55.204Z,1096.00
2023-05-02T09:04:55.124Z,1220.00
2023-05-02T09:06:01.898Z,1124.00
2023-05-02T09:06:55.121Z,1012.00
2023-05-02T09:07:55.082Z,1060.00
2023-05-02T09:08:55.088Z,1012.00
2023-05-02T09:09:56.745Z,1192.00
2023-05-02T09:11:02.292Z,1512.00
2023-05-02T09:11:55.055Z,1748.00
2023-05-02T09:12:55.171Z,1896.00
2023-05-02T09:13:55.210Z,1488.00
2023-05-02T09:14:55.018Z,1388.00
2023-05-02T09:15:55.011Z,1216.00
2023-05-02T09:16:55.100Z,1096.00
2023-05-02T09:17:55.028Z,1080.00
2023-05-02T09:18:54.989Z,1212.00
2023-05-02T09:19:54.960Z,1212.00
2023-05-02T09:20:54.929Z,1168.00
2023-05-02T09:21:55.949Z,1148.00
2023-05-02T09:22:54.953Z,1168.00
2023-05-02T09:23:54.938Z,1236.00
2023-05-02T09:24:54.889Z,1340.00
2023-05-02T09:25:54.899Z,1184.00
2023-05-02T09:26:54.892Z,1072.00
2023-05-02T09:27:54.881Z,1084.00
2023-05-02T09:28:54.882Z,1092.00
2023-05-02T09:29:54.881Z,1292.00
2023-05-02T09:30:54.860Z,1188.00
2023-05-02T09:31:56.523Z,1176.00
2023-05-02T09:32:54.840Z,1280.00
2023-05-02T09:33:54.811Z,1448.00
2023-05-02T09:34:54.846Z,1360.00
2023-05-02T09:35:54.760Z,1256.00
2023-05-02T09:36:54.941Z,1100.00
2023-05-02T09:37:54.829Z,1024.00
2023-05-02T09:38:54.740Z,1148.00
2023-05-02T09:39:54.717Z,1280.00
2023-05-02T09:40:54.688Z,1280.00
2023-05-02T09:41:54.994Z,1312.00
2023-05-02T09:42:54.683Z,1408.00
2023-05-02T09:43:54.697Z,1500.00
2023-05-02T09:44:54.650Z,1540.00
2023-05-02T09:45:54.664Z,1596.00
2023-05-02T09:46:54.690Z,1584.00
2023-05-02T09:47:54.728Z,1728.00
2023-05-02T09:48:54.597Z,1796.00
2023-05-02T09:49:54.624Z,1824.00
2023-05-02T09:50:54.602Z,1704.00
2023-05-02T09:51:54.629Z,1676.00
2023-05-02T09:52:54.554Z,1596.00
2023-05-02T09:53:54.547Z,1548.00
2023-05-02T09:54:54.541Z,1632.00
2023-05-02T09:55:54.605Z,1692.00
2023-05-02T09:56:54.526Z,1812.00
2023-05-02T09:57:54.556Z,1924.00
2023-05-02T09:58:54.505Z,1920.00
2023-05-02T09:59:54.477Z,1916.00
2023-05-02T10:00:54.455Z,1984.00
2023-05-02T10:01:54.705Z,2040.00
2023-05-02T10:02:54.479Z,2184.00
2023-05-02T10:03:54.460Z,2076.00
2023-05-02T10:04:54.464Z,2020.00
2023-05-02T10:05:54.441Z,1916.00
2023-05-02T10:06:54.427Z,1820.00
2023-05-02T10:07:54.418Z,1792.00
2023-05-02T10:08:54.364Z,1816.00
2023-05-02T10:09:54.415Z,1832.00
2023-05-02T10:10:54.336Z,1980.00
2023-05-02T10:11:54.384Z,2112.00
2023-05-02T10:12:54.338Z,2308.00
2023-05-02T10:13:54.366Z,2384.00
2023-05-02T10:14:54.293Z,2404.00
2023-05-02T10:15:54.350Z,2452.00
2023-05-02T10:16:54.299Z,2568.00
2023-05-02T10:17:54.312Z,2660.00
2023-05-02T10:18:54.312Z,2672.00
2023-05-02T10:19:54.256Z,2660.00
2023-05-02T10:20:54.221Z,2532.00
2023-05-02T10:21:54.248Z,2456.00
2023-05-02T10:22:54.220Z,2312.00
2023-05-02T10:23:54.225Z,1996.00
2023-05-02T10:24:54.238Z,1896.00
2023-05-02T10:25:54.206Z,1900.00
2023-05-02T10:26:54.183Z,2024.00
2023-05-02T10:27:55.860Z,2316.00
2023-05-02T10:28:54.164Z,2552.00
2023-05-02T10:29:54.160Z,2768.00
2023-05-02T10:30:54.158Z,3044.00
2023-05-02T10:31:54.239Z,3244.00
2023-05-02T10:32:54.132Z,3296.00
2023-05-02T10:33:54.121Z,3204.00
2023-05-02T10:34:54.095Z,3024.00
2023-05-02T10:35:54.065Z,2492.00
2023-05-02T10:36:54.095Z,2772.00
2023-05-02T10:37:54.075Z,3112.00
2023-05-02T10:38:54.074Z,2848.00
2023-05-02T10:39:54.022Z,2852.00
2023-05-02T10:40:54.962Z,2916.00
2023-05-02T10:41:54.143Z,2888.00
2023-05-02T10:42:54.007Z,2996.00
2023-05-02T10:43:54.007Z,2940.00
2023-05-02T10:44:53.977Z,2604.00
2023-05-02T10:45:53.965Z,2600.00
2023-05-02T10:46:54.020Z,2632.00
2023-05-02T10:47:54.151Z,2548.00
2023-05-02T10:48:53.935Z,2208.00
2023-05-02T10:49:53.900Z,1744.00
2023-05-02T10:50:53.920Z,1496.00
2023-05-02T10:51:53.979Z,1564.00
2023-05-02T10:52:53.921Z,1948.00
2023-05-02T10:53:53.887Z,2396.00
2023-05-02T10:54:53.867Z,2472.00
2023-05-02T10:55:53.841Z,2044.00
2023-05-02T10:56:53.857Z,1700.00
2023-05-02T10:57:53.816Z,1644.00
2023-05-02T10:58:53.793Z,1752.00
2023-05-02T10:59:53.798Z,2164.00
2023-05-02T11:00:53.843Z,2188.00
2023-05-02T11:01:53.826Z,2036.00
2023-05-02T11:02:53.855Z,1872.00
2023-05-02T11:03:53.764Z,1996.00
2023-05-02T11:04:53.735Z,2392.00
2023-05-02T11:05:53.741Z,2888.00
2023-05-02T11:06:53.735Z,3104.00
2023-05-02T11:07:53.761Z,3064.00
2023-05-02T11:08:53.717Z,2844.00
2023-05-02T11:09:53.700Z,2408.00
2023-05-02T11:10:53.690Z,2204.00
2023-05-02T11:11:53.689Z,2220.00
2023-05-02T11:12:53.633Z,2492.00
2023-05-02T11:13:53.668Z,2752.00
2023-05-02T11:14:53.668Z,2976.00
2023-05-02T11:15:53.654Z,2984.00
2023-05-02T11:16:53.762Z,2908.00
2023-05-02T11:17:53.618Z,2648.00
2023-05-02T11:18:53.565Z,2188.00
2023-05-02T11:19:53.608Z,2172.00
2023-05-02T11:20:53.556Z,2420.00
2023-05-02T11:21:53.580Z,2504.00
2023-05-02T11:22:53.560Z,2288.00
2023-05-02T11:23:53.544Z,2416.00
2023-05-02T11:24:53.514Z,2856.00
2023-05-02T11:25:53.543Z,3060.00
2023-05-02T11:26:53.478Z,3148.00
2023-05-02T11:27:53.523Z,3104.00
2023-05-02T11:28:53.471Z,3020.00
2023-05-02T11:29:53.529Z,3232.00
2023-05-02T11:30:54.203Z,3248.00
2023-05-02T11:31:53.516Z,3280.00
2023-05-02T11:32:53.584Z,3160.00
2023-05-02T11:33:53.399Z,3000.00
2023-05-02T11:34:53.374Z,2660.00
2023-05-02T11:35:53.389Z,2884.00
2023-05-02T11:36:53.429Z,2668.00
2023-05-02T11:37:53.377Z,2568.00
2023-05-02T11:38:53.353Z,2580.00
2023-05-02T11:39:53.367Z,2452.00
2023-05-02T11:40:53.380Z,1940.00
2023-05-02T11:41:53.334Z,1612.00
2023-05-02T11:42:53.283Z,1516.00
2023-05-02T11:43:53.321Z,1468.00
2023-05-02T11:44:53.258Z,1492.00
2023-05-02T11:45:53.326Z,1620.00
2023-05-02T11:46:53.293Z,1996.00
2023-05-02T11:47:53.281Z,2400.00
2023-05-02T11:48:53.214Z,2680.00
2023-05-02T11:49:53.210Z,2580.00
2023-05-02T11:50:53.222Z,2572.00
2023-05-02T11:51:53.265Z,2264.00
2023-05-02T11:52:53.171Z,1832.00
2023-05-02T11:53:53.196Z,1608.00
2023-05-02T11:54:53.141Z,1672.00
2023-05-02T11:55:53.150Z,1932.00
2023-05-02T11:56:53.173Z,2120.00
2023-05-02T11:57:53.114Z,2192.00
2023-05-02T11:58:53.142Z,2248.00
2023-05-02T11:59:53.185Z,2096.00
2023-05-02T12:00:53.081Z,2100.00
2023-05-02T12:01:53.103Z,2284.00
2023-05-02T12:02:53.139Z,2376.00
2023-05-02T12:03:53.118Z,2400.00
2023-05-02T12:04:53.022Z,2608.00
2023-05-02T12:05:53.119Z,2660.00
2023-05-02T12:06:54.767Z,2708.00
2023-05-02T12:07:52.997Z,2796.00
2023-05-02T12:08:53.002Z,2796.00
2023-05-02T12:09:52.971Z,2844.00
2023-05-02T12:10:52.964Z,2888.00
2023-05-02T12:11:52.984Z,2964.00
2023-05-02T12:12:52.957Z,2916.00
2023-05-02T12:13:52.965Z,2828.00
2023-05-02T12:14:52.902Z,2700.00
2023-05-02T12:15:52.933Z,2704.00
2023-05-02T12:16:52.912Z,3020.00
2023-05-02T12:17:53.063Z,3088.00
2023-05-02T12:18:52.890Z,3048.00
2023-05-02T12:19:52.887Z,2976.00
2023-05-02T12:20:52.837Z,2936.00
2023-05-02T12:21:52.835Z,2872.00
2023-05-02T12:22:52.840Z,3096.00
2023-05-02T12:23:52.848Z,3368.00
2023-05-02T12:24:52.848Z,3420.00
2023-05-02T12:25:52.822Z,3320.00
2023-05-02T12:26:53.084Z,3260.00
2023-05-02T12:27:52.768Z,3148.00
2023-05-02T12:28:52.761Z,3192.00
2023-05-02T12:29:52.761Z,3272.00
2023-05-02T12:30:52.745Z,3328.00
2023-05-02T12:31:52.906Z,3220.00
2023-05-02T12:32:52.842Z,3136.00
2023-05-02T12:33:52.891Z,3136.00
2023-05-02T12:34:52.688Z,3088.00
2023-05-02T12:35:52.685Z,3072.00